<?xml version="1.0" encoding="UTF-8" standalone="no" ?>
<gpx xmlns="http://www.topografix.com/GPX/1/1" xmlns:xsi="http://www.w3.org/2001/XMLSchema-instance" xsi:schemaLocation="http://www.topografix.com/GPX/1/1 http://www.topografix.com/GPX/1/1/gpx.xsd" version="1.1" creator="VisuGPX - https://www.visugpx.com">
  <metadata>
    <name>GRAND CHARNIER D\'ALLEMONT</name>
    <desc><![CDATA[http://www.skitour.fr/topos/grand-charnier-d-allemont,1727.html]]></desc>
  </metadata>
  <trk>
    <name><![CDATA[Grand Rochail]]></name>
    <trkseg>
      <trkpt lat="45.12856" lon="6.01793">
        <ele>1157.800048828</ele>
        <time>2012-03-03T04:53:00Z</time>
      </trkpt>
      <trkpt lat="45.12874" lon="6.0182">
        <ele>1162.800048828</ele>
        <time>2012-03-03T04:53:59Z</time>
      </trkpt>
      <trkpt lat="45.12872" lon="6.01825">
        <ele>1160.800048828</ele>
        <time>2012-03-03T04:54:26Z</time>
      </trkpt>
      <trkpt lat="45.12947" lon="6.01929">
        <ele>1175</ele>
        <time>2012-03-03T04:56:36Z</time>
      </trkpt>
      <trkpt lat="45.12999" lon="6.01978">
        <ele>1178.199951172</ele>
        <time>2012-03-03T04:59:03Z</time>
      </trkpt>
      <trkpt lat="45.1305" lon="6.01995">
        <ele>1189.599975586</ele>
        <time>2012-03-03T05:00:07Z</time>
      </trkpt>
      <trkpt lat="45.13159" lon="6.02064">
        <ele>1197</ele>
        <time>2012-03-03T05:02:15Z</time>
      </trkpt>
      <trkpt lat="45.13177" lon="6.02066">
        <ele>1201.400024414</ele>
        <time>2012-03-03T05:02:42Z</time>
      </trkpt>
      <trkpt lat="45.13222" lon="6.02042">
        <ele>1224.199951172</ele>
        <time>2012-03-03T05:03:49Z</time>
      </trkpt>
      <trkpt lat="45.13229" lon="6.02031">
        <ele>1228.800048828</ele>
        <time>2012-03-03T05:04:00Z</time>
      </trkpt>
      <trkpt lat="45.13255" lon="6.02027">
        <ele>1235.800048828</ele>
        <time>2012-03-03T05:04:24Z</time>
      </trkpt>
      <trkpt lat="45.13275" lon="6.02039">
        <ele>1239.599975586</ele>
        <time>2012-03-03T05:04:45Z</time>
      </trkpt>
      <trkpt lat="45.13281" lon="6.02051">
        <ele>1239.199951172</ele>
        <time>2012-03-03T05:04:56Z</time>
      </trkpt>
      <trkpt lat="45.13274" lon="6.02118">
        <ele>1223</ele>
        <time>2012-03-03T05:05:51Z</time>
      </trkpt>
      <trkpt lat="45.13277" lon="6.0217">
        <ele>1214.400024414</ele>
        <time>2012-03-03T05:06:29Z</time>
      </trkpt>
      <trkpt lat="45.13288" lon="6.02217">
        <ele>1212.400024414</ele>
        <time>2012-03-03T05:07:14Z</time>
      </trkpt>
      <trkpt lat="45.13288" lon="6.0226">
        <ele>1206.400024414</ele>
        <time>2012-03-03T05:07:49Z</time>
      </trkpt>
      <trkpt lat="45.13301" lon="6.02289">
        <ele>1210.800048828</ele>
        <time>2012-03-03T05:08:15Z</time>
      </trkpt>
      <trkpt lat="45.13357" lon="6.02368">
        <ele>1225.599975586</ele>
        <time>2012-03-03T05:09:47Z</time>
      </trkpt>
      <trkpt lat="45.13367" lon="6.0237">
        <ele>1228.800048828</ele>
        <time>2012-03-03T05:09:59Z</time>
      </trkpt>
      <trkpt lat="45.13384" lon="6.02393">
        <ele>1229</ele>
        <time>2012-03-03T05:10:26Z</time>
      </trkpt>
      <trkpt lat="45.13441" lon="6.02434">
        <ele>1238</ele>
        <time>2012-03-03T05:11:40Z</time>
      </trkpt>
      <trkpt lat="45.13478" lon="6.02443">
        <ele>1249</ele>
        <time>2012-03-03T05:12:23Z</time>
      </trkpt>
      <trkpt lat="45.13566" lon="6.02531">
        <ele>1257</ele>
        <time>2012-03-03T05:14:34Z</time>
      </trkpt>
      <trkpt lat="45.13584" lon="6.02536">
        <ele>1263.199951172</ele>
        <time>2012-03-03T05:14:58Z</time>
      </trkpt>
      <trkpt lat="45.13638" lon="6.02615">
        <ele>1268.199951172</ele>
        <time>2012-03-03T05:16:46Z</time>
      </trkpt>
      <trkpt lat="45.13664" lon="6.02636">
        <ele>1272.599975586</ele>
        <time>2012-03-03T05:17:24Z</time>
      </trkpt>
      <trkpt lat="45.13731" lon="6.02666">
        <ele>1273.800048828</ele>
        <time>2012-03-03T05:18:37Z</time>
      </trkpt>
      <trkpt lat="45.13767" lon="6.02659">
        <ele>1280</ele>
        <time>2012-03-03T05:19:10Z</time>
      </trkpt>
      <trkpt lat="45.13793" lon="6.02663">
        <ele>1278.400024414</ele>
        <time>2012-03-03T05:19:32Z</time>
      </trkpt>
      <trkpt lat="45.13839" lon="6.02613">
        <ele>1299.400024414</ele>
        <time>2012-03-03T05:20:20Z</time>
      </trkpt>
      <trkpt lat="45.13851" lon="6.02636">
        <ele>1295.599975586</ele>
        <time>2012-03-03T05:20:35Z</time>
      </trkpt>
      <trkpt lat="45.13863" lon="6.02697">
        <ele>1279</ele>
        <time>2012-03-03T05:21:17Z</time>
      </trkpt>
      <trkpt lat="45.13883" lon="6.02747">
        <ele>1270.599975586</ele>
        <time>2012-03-03T05:21:54Z</time>
      </trkpt>
      <trkpt lat="45.13973" lon="6.02823">
        <ele>1278.400024414</ele>
        <time>2012-03-03T05:23:36Z</time>
      </trkpt>
      <trkpt lat="45.13982" lon="6.02842">
        <ele>1276</ele>
        <time>2012-03-03T05:23:52Z</time>
      </trkpt>
      <trkpt lat="45.13992" lon="6.02918">
        <ele>1262</ele>
        <time>2012-03-03T05:24:45Z</time>
      </trkpt>
      <trkpt lat="45.14015" lon="6.02934">
        <ele>1260.199951172</ele>
        <time>2012-03-03T05:25:23Z</time>
      </trkpt>
      <trkpt lat="45.14089" lon="6.02907">
        <ele>1271.400024414</ele>
        <time>2012-03-03T05:26:31Z</time>
      </trkpt>
      <trkpt lat="45.14138" lon="6.02828">
        <ele>1292.599975586</ele>
        <time>2012-03-03T05:27:45Z</time>
      </trkpt>
      <trkpt lat="45.14187" lon="6.02824">
        <ele>1282.800048828</ele>
        <time>2012-03-03T05:28:28Z</time>
      </trkpt>
      <trkpt lat="45.14209" lon="6.02808">
        <ele>1283.199951172</ele>
        <time>2012-03-03T05:28:51Z</time>
      </trkpt>
      <trkpt lat="45.14221" lon="6.02787">
        <ele>1288.400024414</ele>
        <time>2012-03-03T05:29:13Z</time>
      </trkpt>
      <trkpt lat="45.14247" lon="6.02774">
        <ele>1285.800048828</ele>
        <time>2012-03-03T05:30:43Z</time>
      </trkpt>
      <trkpt lat="45.14253" lon="6.0278">
        <ele>1282.400024414</ele>
        <time>2012-03-03T05:31:33Z</time>
      </trkpt>
      <trkpt lat="45.14254" lon="6.02765">
        <ele>1288.800048828</ele>
        <time>2012-03-03T05:31:54Z</time>
      </trkpt>
      <trkpt lat="45.14269" lon="6.02771">
        <ele>1287.199951172</ele>
        <time>2012-03-03T05:32:24Z</time>
      </trkpt>
      <trkpt lat="45.1427" lon="6.0276">
        <ele>1292</ele>
        <time>2012-03-03T05:32:39Z</time>
      </trkpt>
      <trkpt lat="45.14288" lon="6.02752">
        <ele>1296.400024414</ele>
        <time>2012-03-03T05:33:36Z</time>
      </trkpt>
      <trkpt lat="45.14293" lon="6.02757">
        <ele>1294.599975586</ele>
        <time>2012-03-03T05:34:07Z</time>
      </trkpt>
      <trkpt lat="45.1429" lon="6.02753">
        <ele>1296.199951172</ele>
        <time>2012-03-03T05:35:28Z</time>
      </trkpt>
      <trkpt lat="45.14342" lon="6.02721">
        <ele>1313</ele>
        <time>2012-03-03T05:36:48Z</time>
      </trkpt>
      <trkpt lat="45.1438" lon="6.02721">
        <ele>1314.400024414</ele>
        <time>2012-03-03T05:37:37Z</time>
      </trkpt>
      <trkpt lat="45.14398" lon="6.02699">
        <ele>1323.199951172</ele>
        <time>2012-03-03T05:38:11Z</time>
      </trkpt>
      <trkpt lat="45.14399" lon="6.02685">
        <ele>1328.599975586</ele>
        <time>2012-03-03T05:38:34Z</time>
      </trkpt>
      <trkpt lat="45.14405" lon="6.02689">
        <ele>1327</ele>
        <time>2012-03-03T05:38:58Z</time>
      </trkpt>
      <trkpt lat="45.14431" lon="6.02667">
        <ele>1337.400024414</ele>
        <time>2012-03-03T05:40:31Z</time>
      </trkpt>
      <trkpt lat="45.14445" lon="6.02686">
        <ele>1335.199951172</ele>
        <time>2012-03-03T05:41:13Z</time>
      </trkpt>
      <trkpt lat="45.14469" lon="6.02684">
        <ele>1341.599975586</ele>
        <time>2012-03-03T05:42:02Z</time>
      </trkpt>
      <trkpt lat="45.14472" lon="6.02694">
        <ele>1341.599975586</ele>
        <time>2012-03-03T05:42:38Z</time>
      </trkpt>
      <trkpt lat="45.14469" lon="6.0269">
        <ele>1341</ele>
        <time>2012-03-03T05:43:06Z</time>
      </trkpt>
      <trkpt lat="45.14476" lon="6.02693">
        <ele>1342.800048828</ele>
        <time>2012-03-03T05:43:27Z</time>
      </trkpt>
      <trkpt lat="45.14488" lon="6.02722">
        <ele>1345.400024414</ele>
        <time>2012-03-03T05:44:37Z</time>
      </trkpt>
      <trkpt lat="45.14484" lon="6.02737">
        <ele>1343</ele>
        <time>2012-03-03T05:45:15Z</time>
      </trkpt>
      <trkpt lat="45.14492" lon="6.0275">
        <ele>1346.599975586</ele>
        <time>2012-03-03T05:45:57Z</time>
      </trkpt>
      <trkpt lat="45.14491" lon="6.02771">
        <ele>1349.400024414</ele>
        <time>2012-03-03T05:47:00Z</time>
      </trkpt>
      <trkpt lat="45.14505" lon="6.028">
        <ele>1364.400024414</ele>
        <time>2012-03-03T05:47:56Z</time>
      </trkpt>
      <trkpt lat="45.14496" lon="6.0279">
        <ele>1356.400024414</ele>
        <time>2012-03-03T05:48:08Z</time>
      </trkpt>
      <trkpt lat="45.14508" lon="6.02811">
        <ele>1368.800048828</ele>
        <time>2012-03-03T05:48:21Z</time>
      </trkpt>
      <trkpt lat="45.14516" lon="6.02846">
        <ele>1380.400024414</ele>
        <time>2012-03-03T05:49:30Z</time>
      </trkpt>
      <trkpt lat="45.14512" lon="6.02852">
        <ele>1378.599975586</ele>
        <time>2012-03-03T05:49:39Z</time>
      </trkpt>
      <trkpt lat="45.14521" lon="6.02902">
        <ele>1391.400024414</ele>
        <time>2012-03-03T05:50:30Z</time>
      </trkpt>
      <trkpt lat="45.14516" lon="6.0291">
        <ele>1388.800048828</ele>
        <time>2012-03-03T05:50:47Z</time>
      </trkpt>
      <trkpt lat="45.14526" lon="6.02982">
        <ele>1402.599975586</ele>
        <time>2012-03-03T05:52:18Z</time>
      </trkpt>
      <trkpt lat="45.14573" lon="6.03111">
        <ele>1434</ele>
        <time>2012-03-03T05:54:50Z</time>
      </trkpt>
      <trkpt lat="45.14595" lon="6.03131">
        <ele>1442.400024414</ele>
        <time>2012-03-03T05:55:29Z</time>
      </trkpt>
      <trkpt lat="45.14621" lon="6.03136">
        <ele>1451.400024414</ele>
        <time>2012-03-03T05:55:55Z</time>
      </trkpt>
      <trkpt lat="45.14639" lon="6.0315">
        <ele>1454.400024414</ele>
        <time>2012-03-03T05:56:17Z</time>
      </trkpt>
      <trkpt lat="45.14688" lon="6.03159">
        <ele>1465</ele>
        <time>2012-03-03T05:57:15Z</time>
      </trkpt>
      <trkpt lat="45.14753" lon="6.03158">
        <ele>1477</ele>
        <time>2012-03-03T05:58:32Z</time>
      </trkpt>
      <trkpt lat="45.14757" lon="6.0315">
        <ele>1480.599975586</ele>
        <time>2012-03-03T05:58:53Z</time>
      </trkpt>
      <trkpt lat="45.14753" lon="6.03155">
        <ele>1478</ele>
        <time>2012-03-03T05:59:08Z</time>
      </trkpt>
      <trkpt lat="45.1474" lon="6.03136">
        <ele>1483</ele>
        <time>2012-03-03T05:59:53Z</time>
      </trkpt>
      <trkpt lat="45.14768" lon="6.03136">
        <ele>1488</ele>
        <time>2012-03-03T06:00:49Z</time>
      </trkpt>
      <trkpt lat="45.1478" lon="6.03124">
        <ele>1495</ele>
        <time>2012-03-03T06:01:09Z</time>
      </trkpt>
      <trkpt lat="45.14797" lon="6.03123">
        <ele>1498.400024414</ele>
        <time>2012-03-03T06:01:34Z</time>
      </trkpt>
      <trkpt lat="45.14798" lon="6.0313">
        <ele>1495.599975586</ele>
        <time>2012-03-03T06:01:38Z</time>
      </trkpt>
      <trkpt lat="45.1482" lon="6.03117">
        <ele>1505.199951172</ele>
        <time>2012-03-03T06:02:16Z</time>
      </trkpt>
      <trkpt lat="45.14799" lon="6.03095">
        <ele>1510.400024414</ele>
        <time>2012-03-03T06:03:12Z</time>
      </trkpt>
      <trkpt lat="45.14842" lon="6.03076">
        <ele>1526</ele>
        <time>2012-03-03T06:04:58Z</time>
      </trkpt>
      <trkpt lat="45.14831" lon="6.03067">
        <ele>1527.800048828</ele>
        <time>2012-03-03T06:05:33Z</time>
      </trkpt>
      <trkpt lat="45.14875" lon="6.0304">
        <ele>1544</ele>
        <time>2012-03-03T06:07:25Z</time>
      </trkpt>
      <trkpt lat="45.14872" lon="6.03023">
        <ele>1550.599975586</ele>
        <time>2012-03-03T06:08:21Z</time>
      </trkpt>
      <trkpt lat="45.14855" lon="6.03015">
        <ele>1551.800048828</ele>
        <time>2012-03-03T06:08:45Z</time>
      </trkpt>
      <trkpt lat="45.14844" lon="6.02984">
        <ele>1560.599975586</ele>
        <time>2012-03-03T06:09:22Z</time>
      </trkpt>
      <trkpt lat="45.14847" lon="6.02979">
        <ele>1562.400024414</ele>
        <time>2012-03-03T06:09:29Z</time>
      </trkpt>
      <trkpt lat="45.14823" lon="6.02925">
        <ele>1569</ele>
        <time>2012-03-03T06:10:46Z</time>
      </trkpt>
      <trkpt lat="45.14843" lon="6.02918">
        <ele>1578.199951172</ele>
        <time>2012-03-03T06:11:38Z</time>
      </trkpt>
      <trkpt lat="45.14841" lon="6.02899">
        <ele>1580.599975586</ele>
        <time>2012-03-03T06:12:06Z</time>
      </trkpt>
      <trkpt lat="45.14853" lon="6.02883">
        <ele>1586.800048828</ele>
        <time>2012-03-03T06:13:12Z</time>
      </trkpt>
      <trkpt lat="45.14854" lon="6.02866">
        <ele>1590</ele>
        <time>2012-03-03T06:13:40Z</time>
      </trkpt>
      <trkpt lat="45.14877" lon="6.02859">
        <ele>1599.800048828</ele>
        <time>2012-03-03T06:14:47Z</time>
      </trkpt>
      <trkpt lat="45.14878" lon="6.02831">
        <ele>1605.800048828</ele>
        <time>2012-03-03T06:15:45Z</time>
      </trkpt>
      <trkpt lat="45.14908" lon="6.02823">
        <ele>1618.400024414</ele>
        <time>2012-03-03T06:16:42Z</time>
      </trkpt>
      <trkpt lat="45.14913" lon="6.02799">
        <ele>1621.199951172</ele>
        <time>2012-03-03T06:17:16Z</time>
      </trkpt>
      <trkpt lat="45.14925" lon="6.02788">
        <ele>1626</ele>
        <time>2012-03-03T06:17:52Z</time>
      </trkpt>
      <trkpt lat="45.14942" lon="6.0275">
        <ele>1635.199951172</ele>
        <time>2012-03-03T06:19:00Z</time>
      </trkpt>
      <trkpt lat="45.14955" lon="6.02739">
        <ele>1640.800048828</ele>
        <time>2012-03-03T06:19:38Z</time>
      </trkpt>
      <trkpt lat="45.14961" lon="6.02744">
        <ele>1643.400024414</ele>
        <time>2012-03-03T06:20:01Z</time>
      </trkpt>
      <trkpt lat="45.1497" lon="6.02732">
        <ele>1647.800048828</ele>
        <time>2012-03-03T06:20:45Z</time>
      </trkpt>
      <trkpt lat="45.14979" lon="6.02737">
        <ele>1652.599975586</ele>
        <time>2012-03-03T06:21:29Z</time>
      </trkpt>
      <trkpt lat="45.15004" lon="6.02691">
        <ele>1669.400024414</ele>
        <time>2012-03-03T06:23:09Z</time>
      </trkpt>
      <trkpt lat="45.15015" lon="6.02704">
        <ele>1673</ele>
        <time>2012-03-03T06:23:55Z</time>
      </trkpt>
      <trkpt lat="45.15059" lon="6.02699">
        <ele>1694.400024414</ele>
        <time>2012-03-03T06:26:02Z</time>
      </trkpt>
      <trkpt lat="45.15053" lon="6.02689">
        <ele>1694</ele>
        <time>2012-03-03T06:26:45Z</time>
      </trkpt>
      <trkpt lat="45.15071" lon="6.027">
        <ele>1700</ele>
        <time>2012-03-03T06:27:13Z</time>
      </trkpt>
      <trkpt lat="45.15127" lon="6.0269">
        <ele>1719</ele>
        <time>2012-03-03T06:29:11Z</time>
      </trkpt>
      <trkpt lat="45.15119" lon="6.02682">
        <ele>1719.800048828</ele>
        <time>2012-03-03T06:29:52Z</time>
      </trkpt>
      <trkpt lat="45.15132" lon="6.02662">
        <ele>1729.400024414</ele>
        <time>2012-03-03T06:30:49Z</time>
      </trkpt>
      <trkpt lat="45.15126" lon="6.0265">
        <ele>1730.199951172</ele>
        <time>2012-03-03T06:31:20Z</time>
      </trkpt>
      <trkpt lat="45.1515" lon="6.02637">
        <ele>1739.199951172</ele>
        <time>2012-03-03T06:32:23Z</time>
      </trkpt>
      <trkpt lat="45.15165" lon="6.02612">
        <ele>1749</ele>
        <time>2012-03-03T06:33:28Z</time>
      </trkpt>
      <trkpt lat="45.15178" lon="6.02612">
        <ele>1750</ele>
        <time>2012-03-03T06:33:53Z</time>
      </trkpt>
      <trkpt lat="45.1519" lon="6.02561">
        <ele>1760.599975586</ele>
        <time>2012-03-03T06:35:27Z</time>
      </trkpt>
      <trkpt lat="45.15239" lon="6.02515">
        <ele>1772.199951172</ele>
        <time>2012-03-03T06:37:45Z</time>
      </trkpt>
      <trkpt lat="45.15262" lon="6.02503">
        <ele>1776.599975586</ele>
        <time>2012-03-03T06:39:40Z</time>
      </trkpt>
      <trkpt lat="45.15313" lon="6.0243">
        <ele>1798.599975586</ele>
        <time>2012-03-03T06:41:35Z</time>
      </trkpt>
      <trkpt lat="45.15316" lon="6.0241">
        <ele>1803.599975586</ele>
        <time>2012-03-03T06:42:14Z</time>
      </trkpt>
      <trkpt lat="45.15302" lon="6.02386">
        <ele>1809.400024414</ele>
        <time>2012-03-03T06:42:55Z</time>
      </trkpt>
      <trkpt lat="45.15311" lon="6.02373">
        <ele>1813.400024414</ele>
        <time>2012-03-03T06:43:19Z</time>
      </trkpt>
      <trkpt lat="45.15385" lon="6.0233">
        <ele>1819.599975586</ele>
        <time>2012-03-03T06:45:00Z</time>
      </trkpt>
      <trkpt lat="45.15424" lon="6.02261">
        <ele>1830.199951172</ele>
        <time>2012-03-03T06:46:53Z</time>
      </trkpt>
      <trkpt lat="45.1545" lon="6.02235">
        <ele>1832.400024414</ele>
        <time>2012-03-03T06:47:34Z</time>
      </trkpt>
      <trkpt lat="45.15468" lon="6.02203">
        <ele>1839</ele>
        <time>2012-03-03T06:48:09Z</time>
      </trkpt>
      <trkpt lat="45.15608" lon="6.02096">
        <ele>1844</ele>
        <time>2012-03-03T06:50:58Z</time>
      </trkpt>
      <trkpt lat="45.15646" lon="6.02046">
        <ele>1849.599975586</ele>
        <time>2012-03-03T06:52:07Z</time>
      </trkpt>
      <trkpt lat="45.15675" lon="6.02025">
        <ele>1845</ele>
        <time>2012-03-03T06:53:03Z</time>
      </trkpt>
      <trkpt lat="45.15681" lon="6.02011">
        <ele>1846.599975586</ele>
        <time>2012-03-03T06:53:18Z</time>
      </trkpt>
      <trkpt lat="45.1568" lon="6.0195">
        <ele>1858.599975586</ele>
        <time>2012-03-03T06:54:39Z</time>
      </trkpt>
      <trkpt lat="45.15687" lon="6.01898">
        <ele>1867.800048828</ele>
        <time>2012-03-03T06:55:50Z</time>
      </trkpt>
      <trkpt lat="45.15702" lon="6.01848">
        <ele>1876.599975586</ele>
        <time>2012-03-03T06:56:42Z</time>
      </trkpt>
      <trkpt lat="45.15787" lon="6.01799">
        <ele>1883</ele>
        <time>2012-03-03T06:58:37Z</time>
      </trkpt>
      <trkpt lat="45.15829" lon="6.0179">
        <ele>1883.400024414</ele>
        <time>2012-03-03T06:59:23Z</time>
      </trkpt>
      <trkpt lat="45.15843" lon="6.0177">
        <ele>1887.800048828</ele>
        <time>2012-03-03T06:59:47Z</time>
      </trkpt>
      <trkpt lat="45.15847" lon="6.01716">
        <ele>1902</ele>
        <time>2012-03-03T07:00:53Z</time>
      </trkpt>
      <trkpt lat="45.15885" lon="6.01677">
        <ele>1914.199951172</ele>
        <time>2012-03-03T07:02:28Z</time>
      </trkpt>
      <trkpt lat="45.15864" lon="6.01657">
        <ele>1920.199951172</ele>
        <time>2012-03-03T07:03:21Z</time>
      </trkpt>
      <trkpt lat="45.15869" lon="6.01633">
        <ele>1929.400024414</ele>
        <time>2012-03-03T07:03:55Z</time>
      </trkpt>
      <trkpt lat="45.1594" lon="6.0155">
        <ele>1956.400024414</ele>
        <time>2012-03-03T07:06:44Z</time>
      </trkpt>
      <trkpt lat="45.15954" lon="6.01508">
        <ele>1967.199951172</ele>
        <time>2012-03-03T07:08:05Z</time>
      </trkpt>
      <trkpt lat="45.15997" lon="6.01425">
        <ele>1991.400024414</ele>
        <time>2012-03-03T07:10:27Z</time>
      </trkpt>
      <trkpt lat="45.16043" lon="6.01357">
        <ele>1990.599975586</ele>
        <time>2012-03-03T07:12:23Z</time>
      </trkpt>
      <trkpt lat="45.16027" lon="6.01321">
        <ele>2003.400024414</ele>
        <time>2012-03-03T07:14:29Z</time>
      </trkpt>
      <trkpt lat="45.15988" lon="6.01131">
        <ele>2025.400024414</ele>
        <time>2012-03-03T07:16:53Z</time>
      </trkpt>
      <trkpt lat="45.15994" lon="6.01118">
        <ele>2020.800048828</ele>
        <time>2012-03-03T07:17:05Z</time>
      </trkpt>
      <trkpt lat="45.15941" lon="6.0093">
        <ele>2018</ele>
        <time>2012-03-03T07:19:13Z</time>
      </trkpt>
      <trkpt lat="45.15904" lon="6.00855">
        <ele>2032.599975586</ele>
        <time>2012-03-03T07:20:30Z</time>
      </trkpt>
      <trkpt lat="45.15899" lon="6.0074">
        <ele>2042</ele>
        <time>2012-03-03T07:22:15Z</time>
      </trkpt>
      <trkpt lat="45.15904" lon="6.00587">
        <ele>2067.199951172</ele>
        <time>2012-03-03T07:25:40Z</time>
      </trkpt>
      <trkpt lat="45.15947" lon="6.0052">
        <ele>2078.199951172</ele>
        <time>2012-03-03T07:27:47Z</time>
      </trkpt>
      <trkpt lat="45.15957" lon="6.00484">
        <ele>2086.199951172</ele>
        <time>2012-03-03T07:29:30Z</time>
      </trkpt>
      <trkpt lat="45.15962" lon="6.00489">
        <ele>2083</ele>
        <time>2012-03-03T07:30:41Z</time>
      </trkpt>
      <trkpt lat="45.15961" lon="6.00422">
        <ele>2103.399902344</ele>
        <time>2012-03-03T07:33:15Z</time>
      </trkpt>
      <trkpt lat="45.1591" lon="6.0045">
        <ele>2117.399902344</ele>
        <time>2012-03-03T07:34:52Z</time>
      </trkpt>
      <trkpt lat="45.15918" lon="6.00373">
        <ele>2145</ele>
        <time>2012-03-03T07:36:43Z</time>
      </trkpt>
      <trkpt lat="45.15875" lon="6.00394">
        <ele>2156.399902344</ele>
        <time>2012-03-03T07:38:17Z</time>
      </trkpt>
      <trkpt lat="45.15893" lon="6.00297">
        <ele>2183.600097656</ele>
        <time>2012-03-03T07:40:32Z</time>
      </trkpt>
      <trkpt lat="45.15804" lon="6.00353">
        <ele>2204.800048828</ele>
        <time>2012-03-03T07:43:35Z</time>
      </trkpt>
      <trkpt lat="45.15826" lon="6.00256">
        <ele>2227.199951172</ele>
        <time>2012-03-03T07:46:07Z</time>
      </trkpt>
      <trkpt lat="45.15793" lon="6.00264">
        <ele>2240.199951172</ele>
        <time>2012-03-03T07:47:28Z</time>
      </trkpt>
      <trkpt lat="45.158" lon="6.00237">
        <ele>2246.199951172</ele>
        <time>2012-03-03T07:48:21Z</time>
      </trkpt>
      <trkpt lat="45.15783" lon="6.0024">
        <ele>2253.399902344</ele>
        <time>2012-03-03T07:49:05Z</time>
      </trkpt>
      <trkpt lat="45.15792" lon="6.00209">
        <ele>2260.399902344</ele>
        <time>2012-03-03T07:50:07Z</time>
      </trkpt>
      <trkpt lat="45.15775" lon="6.00212">
        <ele>2268</ele>
        <time>2012-03-03T07:50:49Z</time>
      </trkpt>
      <trkpt lat="45.15784" lon="6.00187">
        <ele>2273.199951172</ele>
        <time>2012-03-03T07:51:40Z</time>
      </trkpt>
      <trkpt lat="45.15761" lon="6.0019">
        <ele>2283.600097656</ele>
        <time>2012-03-03T07:52:42Z</time>
      </trkpt>
      <trkpt lat="45.15768" lon="6.00163">
        <ele>2290.199951172</ele>
        <time>2012-03-03T07:53:36Z</time>
      </trkpt>
      <trkpt lat="45.15715" lon="6.00181">
        <ele>2310.600097656</ele>
        <time>2012-03-03T07:55:28Z</time>
      </trkpt>
      <trkpt lat="45.15668" lon="6.00221">
        <ele>2324.600097656</ele>
        <time>2012-03-03T07:57:31Z</time>
      </trkpt>
      <trkpt lat="45.15667" lon="6.00197">
        <ele>2331</ele>
        <time>2012-03-03T07:58:20Z</time>
      </trkpt>
      <trkpt lat="45.15644" lon="6.0022">
        <ele>2337.600097656</ele>
        <time>2012-03-03T07:59:27Z</time>
      </trkpt>
      <trkpt lat="45.15645" lon="6.00161">
        <ele>2351.600097656</ele>
        <time>2012-03-03T08:01:08Z</time>
      </trkpt>
      <trkpt lat="45.15619" lon="6.00181">
        <ele>2358.199951172</ele>
        <time>2012-03-03T08:02:37Z</time>
      </trkpt>
      <trkpt lat="45.15595" lon="6.00186">
        <ele>2368.800048828</ele>
        <time>2012-03-03T08:03:44Z</time>
      </trkpt>
      <trkpt lat="45.15598" lon="6.0014">
        <ele>2386.600097656</ele>
        <time>2012-03-03T08:05:06Z</time>
      </trkpt>
      <trkpt lat="45.1557" lon="6.00147">
        <ele>2405</ele>
        <time>2012-03-03T08:06:46Z</time>
      </trkpt>
      <trkpt lat="45.15576" lon="6.0009">
        <ele>2428.600097656</ele>
        <time>2012-03-03T08:09:20Z</time>
      </trkpt>
      <trkpt lat="45.1555" lon="6.00093">
        <ele>2431.199951172</ele>
        <time>2012-03-03T08:10:39Z</time>
      </trkpt>
      <trkpt lat="45.15564" lon="6.0006">
        <ele>2464.800048828</ele>
        <time>2012-03-03T08:12:07Z</time>
      </trkpt>
      <trkpt lat="45.15533" lon="6.00065">
        <ele>2467.399902344</ele>
        <time>2012-03-03T08:13:54Z</time>
      </trkpt>
      <trkpt lat="45.15535" lon="6.00043">
        <ele>2483.800048828</ele>
        <time>2012-03-03T08:14:46Z</time>
      </trkpt>
      <trkpt lat="45.15517" lon="6.00044">
        <ele>2489.600097656</ele>
        <time>2012-03-03T08:16:16Z</time>
      </trkpt>
      <trkpt lat="45.15521" lon="6.00031">
        <ele>2498.399902344</ele>
        <time>2012-03-03T08:17:01Z</time>
      </trkpt>
      <trkpt lat="45.15509" lon="6.00034">
        <ele>2500.600097656</ele>
        <time>2012-03-03T08:17:50Z</time>
      </trkpt>
      <trkpt lat="45.1551" lon="6.00022">
        <ele>2508.600097656</ele>
        <time>2012-03-03T08:18:23Z</time>
      </trkpt>
      <trkpt lat="45.15526" lon="6.00005">
        <ele>2516.800048828</ele>
        <time>2012-03-03T08:20:09Z</time>
      </trkpt>
      <trkpt lat="45.15519" lon="6.00012">
        <ele>2513.399902344</ele>
        <time>2012-03-03T08:23:01Z</time>
      </trkpt>
      <trkpt lat="45.15526" lon="6.00009">
        <ele>2513.800048828</ele>
        <time>2012-03-03T08:23:27Z</time>
      </trkpt>
      <trkpt lat="45.15522" lon="6.00008">
        <ele>2516</ele>
        <time>2012-03-03T08:23:43Z</time>
      </trkpt>
      <trkpt lat="45.15534" lon="6">
        <ele>2518.199951172</ele>
        <time>2012-03-03T08:24:28Z</time>
      </trkpt>
      <trkpt lat="45.15527" lon="6.00007">
        <ele>2515.199951172</ele>
        <time>2012-03-03T08:24:40Z</time>
      </trkpt>
      <trkpt lat="45.15531" lon="6.00002">
        <ele>2517.600097656</ele>
        <time>2012-03-03T08:24:50Z</time>
      </trkpt>
      <trkpt lat="45.15525" lon="6.00005">
        <ele>2516.800048828</ele>
        <time>2012-03-03T08:25:26Z</time>
      </trkpt>
      <trkpt lat="45.15534" lon="6">
        <ele>2518.199951172</ele>
        <time>2012-03-03T08:25:58Z</time>
      </trkpt>
      <trkpt lat="45.15528" lon="6.00005">
        <ele>2516.600097656</ele>
        <time>2012-03-03T08:28:17Z</time>
      </trkpt>
      <trkpt lat="45.15534" lon="6.00004">
        <ele>2515</ele>
        <time>2012-03-03T08:30:08Z</time>
      </trkpt>
      <trkpt lat="45.1553" lon="5.99996">
        <ele>2521.800048828</ele>
        <time>2012-03-03T08:31:54Z</time>
      </trkpt>
      <trkpt lat="45.15532" lon="6.00005">
        <ele>2515</ele>
        <time>2012-03-03T08:33:19Z</time>
      </trkpt>
      <trkpt lat="45.15527" lon="6.00006">
        <ele>2515.600097656</ele>
        <time>2012-03-03T08:34:12Z</time>
      </trkpt>
      <trkpt lat="45.1553" lon="6.00001">
        <ele>2518.399902344</ele>
        <time>2012-03-03T08:34:52Z</time>
      </trkpt>
      <trkpt lat="45.15524" lon="6.00003">
        <ele>2518.600097656</ele>
        <time>2012-03-03T08:35:29Z</time>
      </trkpt>
      <trkpt lat="45.15531" lon="5.99999">
        <ele>2519.399902344</ele>
        <time>2012-03-03T08:35:58Z</time>
      </trkpt>
      <trkpt lat="45.15527" lon="5.99997">
        <ele>2521.800048828</ele>
        <time>2012-03-03T08:36:35Z</time>
      </trkpt>
      <trkpt lat="45.1553" lon="6.00018">
        <ele>2505</ele>
        <time>2012-03-03T08:37:36Z</time>
      </trkpt>
      <trkpt lat="45.15525" lon="6">
        <ele>2521</ele>
        <time>2012-03-03T08:38:49Z</time>
      </trkpt>
      <trkpt lat="45.15525" lon="6.00006">
        <ele>2516.199951172</ele>
        <time>2012-03-03T08:39:24Z</time>
      </trkpt>
      <trkpt lat="45.15519" lon="6.00001">
        <ele>2522.199951172</ele>
        <time>2012-03-03T08:40:05Z</time>
      </trkpt>
      <trkpt lat="45.1554" lon="5.99957">
        <ele>2543.800048828</ele>
        <time>2012-03-03T08:44:32Z</time>
      </trkpt>
      <trkpt lat="45.15551" lon="5.99901">
        <ele>2578</ele>
        <time>2012-03-03T08:51:47Z</time>
      </trkpt>
      <trkpt lat="45.15545" lon="5.99898">
        <ele>2580</ele>
        <time>2012-03-03T08:53:14Z</time>
      </trkpt>
      <trkpt lat="45.15557" lon="5.99857">
        <ele>2605</ele>
        <time>2012-03-03T08:58:52Z</time>
      </trkpt>
      <trkpt lat="45.15552" lon="5.99815">
        <ele>2633.399902344</ele>
        <time>2012-03-03T09:04:38Z</time>
      </trkpt>
      <trkpt lat="45.15544" lon="5.99805">
        <ele>2640</ele>
        <time>2012-03-03T09:06:37Z</time>
      </trkpt>
      <trkpt lat="45.15554" lon="5.99802">
        <ele>2644.199951172</ele>
        <time>2012-03-03T09:07:58Z</time>
      </trkpt>
      <trkpt lat="45.15547" lon="5.99799">
        <ele>2645.399902344</ele>
        <time>2012-03-03T09:08:46Z</time>
      </trkpt>
      <trkpt lat="45.15543" lon="5.99787">
        <ele>2654.800048828</ele>
        <time>2012-03-03T09:10:59Z</time>
      </trkpt>
      <trkpt lat="45.15555" lon="5.99754">
        <ele>2682.399902344</ele>
        <time>2012-03-03T09:18:02Z</time>
      </trkpt>
      <trkpt lat="45.15554" lon="5.99733">
        <ele>2688.600097656</ele>
        <time>2012-03-03T09:20:33Z</time>
      </trkpt>
      <trkpt lat="45.15546" lon="5.99728">
        <ele>2689.600097656</ele>
        <time>2012-03-03T09:23:32Z</time>
      </trkpt>
      <trkpt lat="45.15544" lon="5.99715">
        <ele>2692.800048828</ele>
        <time>2012-03-03T09:25:07Z</time>
      </trkpt>
      <trkpt lat="45.15555" lon="5.99689">
        <ele>2697.199951172</ele>
        <time>2012-03-03T09:30:02Z</time>
      </trkpt>
      <trkpt lat="45.15553" lon="5.99698">
        <ele>2695.800048828</ele>
        <time>2012-03-03T09:30:31Z</time>
      </trkpt>
      <trkpt lat="45.15544" lon="5.99685">
        <ele>2699.800048828</ele>
        <time>2012-03-03T09:35:43Z</time>
      </trkpt>
      <trkpt lat="45.15536" lon="5.99688">
        <ele>2700.800048828</ele>
        <time>2012-03-03T09:36:56Z</time>
      </trkpt>
      <trkpt lat="45.15518" lon="5.99664">
        <ele>2711.199951172</ele>
        <time>2012-03-03T09:44:07Z</time>
      </trkpt>
      <trkpt lat="45.15529" lon="5.99677">
        <ele>2705.399902344</ele>
        <time>2012-03-03T09:46:47Z</time>
      </trkpt>
      <trkpt lat="45.15525" lon="5.99672">
        <ele>2707.399902344</ele>
        <time>2012-03-03T09:48:48Z</time>
      </trkpt>
      <trkpt lat="45.15531" lon="5.9968">
        <ele>2704</ele>
        <time>2012-03-03T09:51:25Z</time>
      </trkpt>
      <trkpt lat="45.15528" lon="5.99671">
        <ele>2707.199951172</ele>
        <time>2012-03-03T09:58:54Z</time>
      </trkpt>
      <trkpt lat="45.15534" lon="5.99681">
        <ele>2702.800048828</ele>
        <time>2012-03-03T10:01:38Z</time>
      </trkpt>
      <trkpt lat="45.15539" lon="5.99677">
        <ele>2703</ele>
        <time>2012-03-03T10:02:08Z</time>
      </trkpt>
      <trkpt lat="45.15536" lon="5.99633">
        <ele>2703.600097656</ele>
        <time>2012-03-03T10:02:22Z</time>
      </trkpt>
      <trkpt lat="45.15545" lon="5.99633">
        <ele>2700</ele>
        <time>2012-03-03T10:02:29Z</time>
      </trkpt>
      <trkpt lat="45.15603" lon="5.99735">
        <ele>2679.600097656</ele>
        <time>2012-03-03T10:02:58Z</time>
      </trkpt>
      <trkpt lat="45.15606" lon="5.99713">
        <ele>2678.600097656</ele>
        <time>2012-03-03T10:03:05Z</time>
      </trkpt>
      <trkpt lat="45.15594" lon="5.99569">
        <ele>2668.199951172</ele>
        <time>2012-03-03T10:03:28Z</time>
      </trkpt>
      <trkpt lat="45.15602" lon="5.99556">
        <ele>2665.600097656</ele>
        <time>2012-03-03T10:03:32Z</time>
      </trkpt>
      <trkpt lat="45.15624" lon="5.9956">
        <ele>2652.800048828</ele>
        <time>2012-03-03T10:03:38Z</time>
      </trkpt>
      <trkpt lat="45.15621" lon="5.99463">
        <ele>2653.399902344</ele>
        <time>2012-03-03T10:04:08Z</time>
      </trkpt>
      <trkpt lat="45.15629" lon="5.99445">
        <ele>2645.600097656</ele>
        <time>2012-03-03T10:04:12Z</time>
      </trkpt>
      <trkpt lat="45.15643" lon="5.99461">
        <ele>2641.199951172</ele>
        <time>2012-03-03T10:04:30Z</time>
      </trkpt>
      <trkpt lat="45.15646" lon="5.99451">
        <ele>2638</ele>
        <time>2012-03-03T10:04:40Z</time>
      </trkpt>
      <trkpt lat="45.15657" lon="5.99461">
        <ele>2634.199951172</ele>
        <time>2012-03-03T10:04:44Z</time>
      </trkpt>
      <trkpt lat="45.15662" lon="5.99438">
        <ele>2627.800048828</ele>
        <time>2012-03-03T10:04:48Z</time>
      </trkpt>
      <trkpt lat="45.15692" lon="5.99483">
        <ele>2613</ele>
        <time>2012-03-03T10:05:10Z</time>
      </trkpt>
      <trkpt lat="45.15696" lon="5.99471">
        <ele>2610.600097656</ele>
        <time>2012-03-03T10:05:13Z</time>
      </trkpt>
      <trkpt lat="45.15709" lon="5.99502">
        <ele>2598.399902344</ele>
        <time>2012-03-03T10:05:23Z</time>
      </trkpt>
      <trkpt lat="45.15717" lon="5.99499">
        <ele>2592</ele>
        <time>2012-03-03T10:05:30Z</time>
      </trkpt>
      <trkpt lat="45.1572" lon="5.99481">
        <ele>2593</ele>
        <time>2012-03-03T10:05:44Z</time>
      </trkpt>
      <trkpt lat="45.15737" lon="5.99497">
        <ele>2575.800048828</ele>
        <time>2012-03-03T10:05:54Z</time>
      </trkpt>
      <trkpt lat="45.1574" lon="5.99477">
        <ele>2579.800048828</ele>
        <time>2012-03-03T10:06:24Z</time>
      </trkpt>
      <trkpt lat="45.15771" lon="5.99489">
        <ele>2545.199951172</ele>
        <time>2012-03-03T10:07:26Z</time>
      </trkpt>
      <trkpt lat="45.15774" lon="5.99479">
        <ele>2546.199951172</ele>
        <time>2012-03-03T10:07:39Z</time>
      </trkpt>
      <trkpt lat="45.15787" lon="5.99491">
        <ele>2527.199951172</ele>
        <time>2012-03-03T10:07:47Z</time>
      </trkpt>
      <trkpt lat="45.15789" lon="5.99486">
        <ele>2526.600097656</ele>
        <time>2012-03-03T10:07:53Z</time>
      </trkpt>
      <trkpt lat="45.15795" lon="5.99495">
        <ele>2517.199951172</ele>
        <time>2012-03-03T10:08:01Z</time>
      </trkpt>
      <trkpt lat="45.158" lon="5.99487">
        <ele>2514.199951172</ele>
        <time>2012-03-03T10:08:05Z</time>
      </trkpt>
      <trkpt lat="45.15818" lon="5.99498">
        <ele>2490.399902344</ele>
        <time>2012-03-03T10:08:36Z</time>
      </trkpt>
      <trkpt lat="45.15825" lon="5.99491">
        <ele>2484.800048828</ele>
        <time>2012-03-03T10:08:40Z</time>
      </trkpt>
      <trkpt lat="45.15832" lon="5.99498">
        <ele>2474</ele>
        <time>2012-03-03T10:08:43Z</time>
      </trkpt>
      <trkpt lat="45.15836" lon="5.99492">
        <ele>2474.399902344</ele>
        <time>2012-03-03T10:08:46Z</time>
      </trkpt>
      <trkpt lat="45.15844" lon="5.99505">
        <ele>2465</ele>
        <time>2012-03-03T10:08:52Z</time>
      </trkpt>
      <trkpt lat="45.15861" lon="5.99513">
        <ele>2453.600097656</ele>
        <time>2012-03-03T10:09:02Z</time>
      </trkpt>
      <trkpt lat="45.15862" lon="5.9952">
        <ele>2450.600097656</ele>
        <time>2012-03-03T10:09:17Z</time>
      </trkpt>
      <trkpt lat="45.15892" lon="5.99522">
        <ele>2433</ele>
        <time>2012-03-03T10:09:35Z</time>
      </trkpt>
      <trkpt lat="45.15892" lon="5.99529">
        <ele>2429.800048828</ele>
        <time>2012-03-03T10:09:38Z</time>
      </trkpt>
      <trkpt lat="45.15899" lon="5.99528">
        <ele>2426.399902344</ele>
        <time>2012-03-03T10:09:41Z</time>
      </trkpt>
      <trkpt lat="45.15917" lon="5.9956">
        <ele>2399</ele>
        <time>2012-03-03T10:10:26Z</time>
      </trkpt>
      <trkpt lat="45.15916" lon="5.99569">
        <ele>2395.399902344</ele>
        <time>2012-03-03T10:10:29Z</time>
      </trkpt>
      <trkpt lat="45.15939" lon="5.99582">
        <ele>2373.199951172</ele>
        <time>2012-03-03T10:10:44Z</time>
      </trkpt>
      <trkpt lat="45.15934" lon="5.99619">
        <ele>2366.600097656</ele>
        <time>2012-03-03T10:11:04Z</time>
      </trkpt>
      <trkpt lat="45.1595" lon="5.99615">
        <ele>2357.399902344</ele>
        <time>2012-03-03T10:11:08Z</time>
      </trkpt>
      <trkpt lat="45.15948" lon="5.99637">
        <ele>2353</ele>
        <time>2012-03-03T10:11:13Z</time>
      </trkpt>
      <trkpt lat="45.15962" lon="5.9963">
        <ele>2345</ele>
        <time>2012-03-03T10:11:17Z</time>
      </trkpt>
      <trkpt lat="45.15964" lon="5.99653">
        <ele>2337.600097656</ele>
        <time>2012-03-03T10:11:28Z</time>
      </trkpt>
      <trkpt lat="45.1598" lon="5.99652">
        <ele>2327.199951172</ele>
        <time>2012-03-03T10:11:31Z</time>
      </trkpt>
      <trkpt lat="45.15977" lon="5.99672">
        <ele>2323.600097656</ele>
        <time>2012-03-03T10:11:37Z</time>
      </trkpt>
      <trkpt lat="45.15986" lon="5.99673">
        <ele>2317.199951172</ele>
        <time>2012-03-03T10:11:45Z</time>
      </trkpt>
      <trkpt lat="45.15988" lon="5.9969">
        <ele>2311.199951172</ele>
        <time>2012-03-03T10:11:53Z</time>
      </trkpt>
      <trkpt lat="45.16003" lon="5.99682">
        <ele>2303.199951172</ele>
        <time>2012-03-03T10:12:07Z</time>
      </trkpt>
      <trkpt lat="45.16035" lon="5.99733">
        <ele>2272.199951172</ele>
        <time>2012-03-03T10:12:35Z</time>
      </trkpt>
      <trkpt lat="45.16032" lon="5.99743">
        <ele>2270.800048828</ele>
        <time>2012-03-03T10:12:38Z</time>
      </trkpt>
      <trkpt lat="45.16039" lon="5.99745">
        <ele>2266.399902344</ele>
        <time>2012-03-03T10:12:41Z</time>
      </trkpt>
      <trkpt lat="45.16038" lon="5.9976">
        <ele>2263.399902344</ele>
        <time>2012-03-03T10:12:47Z</time>
      </trkpt>
      <trkpt lat="45.16048" lon="5.99761">
        <ele>2257.600097656</ele>
        <time>2012-03-03T10:13:03Z</time>
      </trkpt>
      <trkpt lat="45.1606" lon="5.99747">
        <ele>2254.600097656</ele>
        <time>2012-03-03T10:13:06Z</time>
      </trkpt>
      <trkpt lat="45.16075" lon="5.99749">
        <ele>2245.600097656</ele>
        <time>2012-03-03T10:13:09Z</time>
      </trkpt>
      <trkpt lat="45.16074" lon="5.9976">
        <ele>2244.399902344</ele>
        <time>2012-03-03T10:13:11Z</time>
      </trkpt>
      <trkpt lat="45.16083" lon="5.9977">
        <ele>2237.399902344</ele>
        <time>2012-03-03T10:13:14Z</time>
      </trkpt>
      <trkpt lat="45.16084" lon="5.99781">
        <ele>2234.800048828</ele>
        <time>2012-03-03T10:13:17Z</time>
      </trkpt>
      <trkpt lat="45.16101" lon="5.99803">
        <ele>2224.800048828</ele>
        <time>2012-03-03T10:13:23Z</time>
      </trkpt>
      <trkpt lat="45.16116" lon="5.99801">
        <ele>2220.399902344</ele>
        <time>2012-03-03T10:13:25Z</time>
      </trkpt>
      <trkpt lat="45.16119" lon="5.99816">
        <ele>2216.399902344</ele>
        <time>2012-03-03T10:13:28Z</time>
      </trkpt>
      <trkpt lat="45.1613" lon="5.9982">
        <ele>2212</ele>
        <time>2012-03-03T10:13:31Z</time>
      </trkpt>
      <trkpt lat="45.16128" lon="5.99812">
        <ele>2214</ele>
        <time>2012-03-03T10:13:42Z</time>
      </trkpt>
      <trkpt lat="45.16078" lon="5.99997">
        <ele>2188</ele>
        <time>2012-03-03T10:14:25Z</time>
      </trkpt>
      <trkpt lat="45.16146" lon="5.99931">
        <ele>2183.800048828</ele>
        <time>2012-03-03T10:14:54Z</time>
      </trkpt>
      <trkpt lat="45.16174" lon="5.99928">
        <ele>2178.800048828</ele>
        <time>2012-03-03T10:15:00Z</time>
      </trkpt>
      <trkpt lat="45.16188" lon="5.99944">
        <ele>2174.600097656</ele>
        <time>2012-03-03T10:15:03Z</time>
      </trkpt>
      <trkpt lat="45.16197" lon="5.99969">
        <ele>2168.600097656</ele>
        <time>2012-03-03T10:15:06Z</time>
      </trkpt>
      <trkpt lat="45.16191" lon="5.99992">
        <ele>2161.399902344</ele>
        <time>2012-03-03T10:15:09Z</time>
      </trkpt>
      <trkpt lat="45.16177" lon="6.00006">
        <ele>2155.199951172</ele>
        <time>2012-03-03T10:15:12Z</time>
      </trkpt>
      <trkpt lat="45.16169" lon="6.0005">
        <ele>2142</ele>
        <time>2012-03-03T10:15:17Z</time>
      </trkpt>
      <trkpt lat="45.16118" lon="6.0014">
        <ele>2126.600097656</ele>
        <time>2012-03-03T10:17:35Z</time>
      </trkpt>
      <trkpt lat="45.16119" lon="6.00164">
        <ele>2118.399902344</ele>
        <time>2012-03-03T10:17:39Z</time>
      </trkpt>
      <trkpt lat="45.16091" lon="6.0024">
        <ele>2096.399902344</ele>
        <time>2012-03-03T10:17:50Z</time>
      </trkpt>
      <trkpt lat="45.16082" lon="6.00243">
        <ele>2096.800048828</ele>
        <time>2012-03-03T10:17:52Z</time>
      </trkpt>
      <trkpt lat="45.16078" lon="6.00275">
        <ele>2088.399902344</ele>
        <time>2012-03-03T10:17:57Z</time>
      </trkpt>
      <trkpt lat="45.16066" lon="6.00283">
        <ele>2092.600097656</ele>
        <time>2012-03-03T10:18:01Z</time>
      </trkpt>
      <trkpt lat="45.16033" lon="6.00356">
        <ele>2088.800048828</ele>
        <time>2012-03-03T10:18:14Z</time>
      </trkpt>
      <trkpt lat="45.16035" lon="6.00392">
        <ele>2077</ele>
        <time>2012-03-03T10:18:21Z</time>
      </trkpt>
      <trkpt lat="45.16023" lon="6.00499">
        <ele>2059.199951172</ele>
        <time>2012-03-03T10:18:48Z</time>
      </trkpt>
      <trkpt lat="45.16014" lon="6.00522">
        <ele>2056.800048828</ele>
        <time>2012-03-03T10:20:18Z</time>
      </trkpt>
      <trkpt lat="45.16069" lon="6.00554">
        <ele>2035.199951172</ele>
        <time>2012-03-03T10:21:49Z</time>
      </trkpt>
      <trkpt lat="45.16103" lon="6.00563">
        <ele>2027</ele>
        <time>2012-03-03T10:22:45Z</time>
      </trkpt>
      <trkpt lat="45.16119" lon="6.0059">
        <ele>2021.199951172</ele>
        <time>2012-03-03T10:22:48Z</time>
      </trkpt>
      <trkpt lat="45.1611" lon="6.00605">
        <ele>2020.199951172</ele>
        <time>2012-03-03T10:23:35Z</time>
      </trkpt>
      <trkpt lat="45.16113" lon="6.00599">
        <ele>2020.599975586</ele>
        <time>2012-03-03T10:24:18Z</time>
      </trkpt>
      <trkpt lat="45.16109" lon="6.00603">
        <ele>2020.599975586</ele>
        <time>2012-03-03T10:24:41Z</time>
      </trkpt>
      <trkpt lat="45.16114" lon="6.00596">
        <ele>2021</ele>
        <time>2012-03-03T10:25:31Z</time>
      </trkpt>
      <trkpt lat="45.16107" lon="6.006">
        <ele>2021.400024414</ele>
        <time>2012-03-03T10:26:02Z</time>
      </trkpt>
      <trkpt lat="45.16116" lon="6.00592">
        <ele>2021.400024414</ele>
        <time>2012-03-03T10:33:19Z</time>
      </trkpt>
      <trkpt lat="45.16111" lon="6.00599">
        <ele>2020.800048828</ele>
        <time>2012-03-03T10:36:31Z</time>
      </trkpt>
      <trkpt lat="45.16115" lon="6.00595">
        <ele>2021</ele>
        <time>2012-03-03T10:38:33Z</time>
      </trkpt>
      <trkpt lat="45.16109" lon="6.00598">
        <ele>2021.400024414</ele>
        <time>2012-03-03T10:42:38Z</time>
      </trkpt>
      <trkpt lat="45.16117" lon="6.0059">
        <ele>2021.400024414</ele>
        <time>2012-03-03T10:45:00Z</time>
      </trkpt>
      <trkpt lat="45.16113" lon="6.006">
        <ele>2020.599975586</ele>
        <time>2012-03-03T10:47:04Z</time>
      </trkpt>
      <trkpt lat="45.16116" lon="6.00596">
        <ele>2020.599975586</ele>
        <time>2012-03-03T10:51:00Z</time>
      </trkpt>
      <trkpt lat="45.1611" lon="6.00598">
        <ele>2021.199951172</ele>
        <time>2012-03-03T11:07:13Z</time>
      </trkpt>
      <trkpt lat="45.16115" lon="6.00596">
        <ele>2020.800048828</ele>
        <time>2012-03-03T11:11:15Z</time>
      </trkpt>
      <trkpt lat="45.16075" lon="6.0067">
        <ele>2015.599975586</ele>
        <time>2012-03-03T11:14:48Z</time>
      </trkpt>
      <trkpt lat="45.16066" lon="6.00715">
        <ele>2009.199951172</ele>
        <time>2012-03-03T11:14:56Z</time>
      </trkpt>
      <trkpt lat="45.16038" lon="6.00736">
        <ele>2009</ele>
        <time>2012-03-03T11:15:03Z</time>
      </trkpt>
      <trkpt lat="45.16008" lon="6.00788">
        <ele>2006.800048828</ele>
        <time>2012-03-03T11:15:12Z</time>
      </trkpt>
      <trkpt lat="45.1601" lon="6.00825">
        <ele>2003.199951172</ele>
        <time>2012-03-03T11:15:30Z</time>
      </trkpt>
      <trkpt lat="45.16005" lon="6.00838">
        <ele>2003</ele>
        <time>2012-03-03T11:15:36Z</time>
      </trkpt>
      <trkpt lat="45.1598" lon="6.00854">
        <ele>2008</ele>
        <time>2012-03-03T11:15:44Z</time>
      </trkpt>
      <trkpt lat="45.15973" lon="6.00879">
        <ele>2008.800048828</ele>
        <time>2012-03-03T11:16:28Z</time>
      </trkpt>
      <trkpt lat="45.15969" lon="6.00875">
        <ele>2010</ele>
        <time>2012-03-03T11:16:56Z</time>
      </trkpt>
      <trkpt lat="45.15973" lon="6.00877">
        <ele>2008.599975586</ele>
        <time>2012-03-03T11:18:46Z</time>
      </trkpt>
      <trkpt lat="45.15967" lon="6.00912">
        <ele>2008.400024414</ele>
        <time>2012-03-03T11:19:20Z</time>
      </trkpt>
      <trkpt lat="45.15971" lon="6.00984">
        <ele>2012.199951172</ele>
        <time>2012-03-03T11:20:28Z</time>
      </trkpt>
      <trkpt lat="45.15984" lon="6.01029">
        <ele>2013.199951172</ele>
        <time>2012-03-03T11:21:24Z</time>
      </trkpt>
      <trkpt lat="45.15993" lon="6.01136">
        <ele>2023.199951172</ele>
        <time>2012-03-03T11:22:50Z</time>
      </trkpt>
      <trkpt lat="45.16022" lon="6.01254">
        <ele>2016.400024414</ele>
        <time>2012-03-03T11:24:21Z</time>
      </trkpt>
      <trkpt lat="45.1602" lon="6.01267">
        <ele>2015.199951172</ele>
        <time>2012-03-03T11:25:07Z</time>
      </trkpt>
      <trkpt lat="45.16016" lon="6.01265">
        <ele>2017.599975586</ele>
        <time>2012-03-03T11:29:01Z</time>
      </trkpt>
      <trkpt lat="45.16023" lon="6.01268">
        <ele>2013.599975586</ele>
        <time>2012-03-03T11:30:38Z</time>
      </trkpt>
      <trkpt lat="45.16017" lon="6.01267">
        <ele>2016.800048828</ele>
        <time>2012-03-03T11:35:21Z</time>
      </trkpt>
      <trkpt lat="45.16023" lon="6.0127">
        <ele>2013.400024414</ele>
        <time>2012-03-03T11:36:20Z</time>
      </trkpt>
      <trkpt lat="45.16008" lon="6.01349">
        <ele>2006.400024414</ele>
        <time>2012-03-03T11:37:25Z</time>
      </trkpt>
      <trkpt lat="45.15955" lon="6.01481">
        <ele>1975</ele>
        <time>2012-03-03T11:37:48Z</time>
      </trkpt>
      <trkpt lat="45.1596" lon="6.01477">
        <ele>1976</ele>
        <time>2012-03-03T11:37:59Z</time>
      </trkpt>
      <trkpt lat="45.15937" lon="6.01551">
        <ele>1956.400024414</ele>
        <time>2012-03-03T11:38:26Z</time>
      </trkpt>
      <trkpt lat="45.15878" lon="6.0162">
        <ele>1934.599975586</ele>
        <time>2012-03-03T11:38:39Z</time>
      </trkpt>
      <trkpt lat="45.15864" lon="6.01648">
        <ele>1923.199951172</ele>
        <time>2012-03-03T11:38:44Z</time>
      </trkpt>
      <trkpt lat="45.15872" lon="6.01641">
        <ele>1926.400024414</ele>
        <time>2012-03-03T11:39:05Z</time>
      </trkpt>
      <trkpt lat="45.15864" lon="6.01645">
        <ele>1924.400024414</ele>
        <time>2012-03-03T11:39:08Z</time>
      </trkpt>
      <trkpt lat="45.15845" lon="6.01688">
        <ele>1909.800048828</ele>
        <time>2012-03-03T11:39:17Z</time>
      </trkpt>
      <trkpt lat="45.1582" lon="6.01693">
        <ele>1909.400024414</ele>
        <time>2012-03-03T11:39:24Z</time>
      </trkpt>
      <trkpt lat="45.15788" lon="6.01725">
        <ele>1902.199951172</ele>
        <time>2012-03-03T11:39:30Z</time>
      </trkpt>
      <trkpt lat="45.15754" lon="6.01745">
        <ele>1896.599975586</ele>
        <time>2012-03-03T11:39:36Z</time>
      </trkpt>
      <trkpt lat="45.15708" lon="6.01802">
        <ele>1886.400024414</ele>
        <time>2012-03-03T11:39:46Z</time>
      </trkpt>
      <trkpt lat="45.15687" lon="6.01891">
        <ele>1869</ele>
        <time>2012-03-03T11:39:55Z</time>
      </trkpt>
      <trkpt lat="45.15674" lon="6.01914">
        <ele>1866.599975586</ele>
        <time>2012-03-03T11:39:58Z</time>
      </trkpt>
      <trkpt lat="45.15654" lon="6.01991">
        <ele>1860.599975586</ele>
        <time>2012-03-03T11:40:06Z</time>
      </trkpt>
      <trkpt lat="45.15629" lon="6.02054">
        <ele>1853</ele>
        <time>2012-03-03T11:40:15Z</time>
      </trkpt>
      <trkpt lat="45.15615" lon="6.02061">
        <ele>1854.800048828</ele>
        <time>2012-03-03T11:41:10Z</time>
      </trkpt>
      <trkpt lat="45.15568" lon="6.02128">
        <ele>1841.599975586</ele>
        <time>2012-03-03T11:41:37Z</time>
      </trkpt>
      <trkpt lat="45.15559" lon="6.02163">
        <ele>1830.199951172</ele>
        <time>2012-03-03T11:41:42Z</time>
      </trkpt>
      <trkpt lat="45.15512" lon="6.02266">
        <ele>1814</ele>
        <time>2012-03-03T11:41:54Z</time>
      </trkpt>
      <trkpt lat="45.15461" lon="6.02352">
        <ele>1806.599975586</ele>
        <time>2012-03-03T11:42:11Z</time>
      </trkpt>
      <trkpt lat="45.15457" lon="6.0237">
        <ele>1803.800048828</ele>
        <time>2012-03-03T11:42:18Z</time>
      </trkpt>
      <trkpt lat="45.15463" lon="6.02409">
        <ele>1796</ele>
        <time>2012-03-03T11:42:30Z</time>
      </trkpt>
      <trkpt lat="45.15446" lon="6.02455">
        <ele>1787.599975586</ele>
        <time>2012-03-03T11:42:46Z</time>
      </trkpt>
      <trkpt lat="45.15434" lon="6.02459">
        <ele>1788.400024414</ele>
        <time>2012-03-03T11:42:58Z</time>
      </trkpt>
      <trkpt lat="45.15433" lon="6.02469">
        <ele>1786.400024414</ele>
        <time>2012-03-03T11:43:09Z</time>
      </trkpt>
      <trkpt lat="45.15408" lon="6.02478">
        <ele>1787</ele>
        <time>2012-03-03T11:43:43Z</time>
      </trkpt>
      <trkpt lat="45.15376" lon="6.02509">
        <ele>1781</ele>
        <time>2012-03-03T11:44:10Z</time>
      </trkpt>
      <trkpt lat="45.15352" lon="6.02515">
        <ele>1780.400024414</ele>
        <time>2012-03-03T11:44:28Z</time>
      </trkpt>
      <trkpt lat="45.15314" lon="6.02555">
        <ele>1771.800048828</ele>
        <time>2012-03-03T11:44:47Z</time>
      </trkpt>
      <trkpt lat="45.15264" lon="6.02569">
        <ele>1764.800048828</ele>
        <time>2012-03-03T11:45:36Z</time>
      </trkpt>
      <trkpt lat="45.1522" lon="6.02605">
        <ele>1754</ele>
        <time>2012-03-03T11:45:46Z</time>
      </trkpt>
      <trkpt lat="45.15229" lon="6.02604">
        <ele>1754.800048828</ele>
        <time>2012-03-03T11:46:40Z</time>
      </trkpt>
      <trkpt lat="45.15227" lon="6.02622">
        <ele>1750.199951172</ele>
        <time>2012-03-03T11:46:48Z</time>
      </trkpt>
      <trkpt lat="45.15216" lon="6.02638">
        <ele>1745.800048828</ele>
        <time>2012-03-03T11:46:56Z</time>
      </trkpt>
      <trkpt lat="45.1521" lon="6.02663">
        <ele>1739.400024414</ele>
        <time>2012-03-03T11:47:14Z</time>
      </trkpt>
      <trkpt lat="45.15187" lon="6.02667">
        <ele>1737.599975586</ele>
        <time>2012-03-03T11:47:22Z</time>
      </trkpt>
      <trkpt lat="45.15181" lon="6.02685">
        <ele>1730.800048828</ele>
        <time>2012-03-03T11:47:53Z</time>
      </trkpt>
      <trkpt lat="45.15204" lon="6.02717">
        <ele>1721.400024414</ele>
        <time>2012-03-03T11:48:32Z</time>
      </trkpt>
      <trkpt lat="45.15206" lon="6.02739">
        <ele>1714.599975586</ele>
        <time>2012-03-03T11:48:38Z</time>
      </trkpt>
      <trkpt lat="45.15155" lon="6.02741">
        <ele>1707</ele>
        <time>2012-03-03T11:49:39Z</time>
      </trkpt>
      <trkpt lat="45.15107" lon="6.02778">
        <ele>1682.199951172</ele>
        <time>2012-03-03T11:50:17Z</time>
      </trkpt>
      <trkpt lat="45.15116" lon="6.02808">
        <ele>1672.199951172</ele>
        <time>2012-03-03T11:50:31Z</time>
      </trkpt>
      <trkpt lat="45.15094" lon="6.02817">
        <ele>1665</ele>
        <time>2012-03-03T11:50:38Z</time>
      </trkpt>
      <trkpt lat="45.15101" lon="6.02834">
        <ele>1659.199951172</ele>
        <time>2012-03-03T11:50:54Z</time>
      </trkpt>
      <trkpt lat="45.15097" lon="6.02864">
        <ele>1646.400024414</ele>
        <time>2012-03-03T11:51:01Z</time>
      </trkpt>
      <trkpt lat="45.15065" lon="6.02876">
        <ele>1636.199951172</ele>
        <time>2012-03-03T11:51:11Z</time>
      </trkpt>
      <trkpt lat="45.1507" lon="6.02881">
        <ele>1635.199951172</ele>
        <time>2012-03-03T11:51:23Z</time>
      </trkpt>
      <trkpt lat="45.15063" lon="6.02923">
        <ele>1616.800048828</ele>
        <time>2012-03-03T11:52:16Z</time>
      </trkpt>
      <trkpt lat="45.15049" lon="6.02933">
        <ele>1610.800048828</ele>
        <time>2012-03-03T11:52:29Z</time>
      </trkpt>
      <trkpt lat="45.15048" lon="6.02946">
        <ele>1605</ele>
        <time>2012-03-03T11:52:38Z</time>
      </trkpt>
      <trkpt lat="45.15044" lon="6.02943">
        <ele>1605.800048828</ele>
        <time>2012-03-03T11:52:43Z</time>
      </trkpt>
      <trkpt lat="45.15048" lon="6.02944">
        <ele>1606.199951172</ele>
        <time>2012-03-03T11:52:50Z</time>
      </trkpt>
      <trkpt lat="45.15038" lon="6.02955">
        <ele>1599.599975586</ele>
        <time>2012-03-03T11:53:02Z</time>
      </trkpt>
      <trkpt lat="45.15041" lon="6.03002">
        <ele>1579</ele>
        <time>2012-03-03T11:53:39Z</time>
      </trkpt>
      <trkpt lat="45.15031" lon="6.03043">
        <ele>1560.800048828</ele>
        <time>2012-03-03T11:54:11Z</time>
      </trkpt>
      <trkpt lat="45.15025" lon="6.03046">
        <ele>1558.599975586</ele>
        <time>2012-03-03T11:54:21Z</time>
      </trkpt>
      <trkpt lat="45.1504" lon="6.03079">
        <ele>1547.199951172</ele>
        <time>2012-03-03T11:54:45Z</time>
      </trkpt>
      <trkpt lat="45.15029" lon="6.03101">
        <ele>1536.599975586</ele>
        <time>2012-03-03T11:54:55Z</time>
      </trkpt>
      <trkpt lat="45.15034" lon="6.031">
        <ele>1538.199951172</ele>
        <time>2012-03-03T11:55:20Z</time>
      </trkpt>
      <trkpt lat="45.15033" lon="6.03086">
        <ele>1543.199951172</ele>
        <time>2012-03-03T11:55:50Z</time>
      </trkpt>
      <trkpt lat="45.15044" lon="6.03097">
        <ele>1541.400024414</ele>
        <time>2012-03-03T11:56:15Z</time>
      </trkpt>
      <trkpt lat="45.15053" lon="6.03129">
        <ele>1530.199951172</ele>
        <time>2012-03-03T11:56:24Z</time>
      </trkpt>
      <trkpt lat="45.15003" lon="6.03138">
        <ele>1517</ele>
        <time>2012-03-03T11:56:47Z</time>
      </trkpt>
      <trkpt lat="45.15017" lon="6.03145">
        <ele>1516.800048828</ele>
        <time>2012-03-03T11:56:57Z</time>
      </trkpt>
      <trkpt lat="45.14901" lon="6.03175">
        <ele>1489.800048828</ele>
        <time>2012-03-03T11:57:42Z</time>
      </trkpt>
      <trkpt lat="45.14798" lon="6.03181">
        <ele>1474.800048828</ele>
        <time>2012-03-03T11:58:25Z</time>
      </trkpt>
      <trkpt lat="45.148" lon="6.03176">
        <ele>1477.199951172</ele>
        <time>2012-03-03T11:58:32Z</time>
      </trkpt>
      <trkpt lat="45.14794" lon="6.03197">
        <ele>1467.800048828</ele>
        <time>2012-03-03T11:58:42Z</time>
      </trkpt>
      <trkpt lat="45.14761" lon="6.03204">
        <ele>1461</ele>
        <time>2012-03-03T11:59:08Z</time>
      </trkpt>
      <trkpt lat="45.1474" lon="6.0322">
        <ele>1452.199951172</ele>
        <time>2012-03-03T11:59:21Z</time>
      </trkpt>
      <trkpt lat="45.14722" lon="6.03221">
        <ele>1449.599975586</ele>
        <time>2012-03-03T11:59:39Z</time>
      </trkpt>
      <trkpt lat="45.147" lon="6.03209">
        <ele>1450.400024414</ele>
        <time>2012-03-03T12:00:27Z</time>
      </trkpt>
      <trkpt lat="45.14661" lon="6.03213">
        <ele>1442.599975586</ele>
        <time>2012-03-03T12:01:28Z</time>
      </trkpt>
      <trkpt lat="45.14655" lon="6.03193">
        <ele>1447.400024414</ele>
        <time>2012-03-03T12:02:07Z</time>
      </trkpt>
      <trkpt lat="45.14617" lon="6.03146">
        <ele>1448</ele>
        <time>2012-03-03T12:03:34Z</time>
      </trkpt>
      <trkpt lat="45.14596" lon="6.03141">
        <ele>1441.800048828</ele>
        <time>2012-03-03T12:03:56Z</time>
      </trkpt>
      <trkpt lat="45.14559" lon="6.03089">
        <ele>1427.400024414</ele>
        <time>2012-03-03T12:04:15Z</time>
      </trkpt>
      <trkpt lat="45.14526" lon="6.02996">
        <ele>1404</ele>
        <time>2012-03-03T12:05:21Z</time>
      </trkpt>
      <trkpt lat="45.14518" lon="6.02956">
        <ele>1394.199951172</ele>
        <time>2012-03-03T12:05:56Z</time>
      </trkpt>
      <trkpt lat="45.14522" lon="6.02884">
        <ele>1389.199951172</ele>
        <time>2012-03-03T12:06:32Z</time>
      </trkpt>
      <trkpt lat="45.14526" lon="6.02883">
        <ele>1392.199951172</ele>
        <time>2012-03-03T12:06:37Z</time>
      </trkpt>
      <trkpt lat="45.14527" lon="6.02858">
        <ele>1389.400024414</ele>
        <time>2012-03-03T12:06:54Z</time>
      </trkpt>
      <trkpt lat="45.14491" lon="6.02778">
        <ele>1350.400024414</ele>
        <time>2012-03-03T12:08:39Z</time>
      </trkpt>
      <trkpt lat="45.14492" lon="6.0274">
        <ele>1346.800048828</ele>
        <time>2012-03-03T12:09:22Z</time>
      </trkpt>
      <trkpt lat="45.14483" lon="6.02723">
        <ele>1343.199951172</ele>
        <time>2012-03-03T12:09:40Z</time>
      </trkpt>
      <trkpt lat="45.1448" lon="6.02726">
        <ele>1341.400024414</ele>
        <time>2012-03-03T12:09:45Z</time>
      </trkpt>
      <trkpt lat="45.14468" lon="6.02693">
        <ele>1340.199951172</ele>
        <time>2012-03-03T12:10:31Z</time>
      </trkpt>
      <trkpt lat="45.14457" lon="6.02692">
        <ele>1337.400024414</ele>
        <time>2012-03-03T12:11:39Z</time>
      </trkpt>
      <trkpt lat="45.14451" lon="6.02707">
        <ele>1332.599975586</ele>
        <time>2012-03-03T12:11:43Z</time>
      </trkpt>
      <trkpt lat="45.14427" lon="6.02714">
        <ele>1321.800048828</ele>
        <time>2012-03-03T12:11:51Z</time>
      </trkpt>
      <trkpt lat="45.14432" lon="6.02723">
        <ele>1321.199951172</ele>
        <time>2012-03-03T12:12:03Z</time>
      </trkpt>
      <trkpt lat="45.14417" lon="6.02768">
        <ele>1304.400024414</ele>
        <time>2012-03-03T12:12:12Z</time>
      </trkpt>
      <trkpt lat="45.14398" lon="6.02772">
        <ele>1300.800048828</ele>
        <time>2012-03-03T12:12:18Z</time>
      </trkpt>
      <trkpt lat="45.14398" lon="6.02782">
        <ele>1299.400024414</ele>
        <time>2012-03-03T12:13:42Z</time>
      </trkpt>
      <trkpt lat="45.14318" lon="6.02802">
        <ele>1276.599975586</ele>
        <time>2012-03-03T12:14:08Z</time>
      </trkpt>
      <trkpt lat="45.14291" lon="6.02788">
        <ele>1281.400024414</ele>
        <time>2012-03-03T12:14:31Z</time>
      </trkpt>
      <trkpt lat="45.14249" lon="6.02799">
        <ele>1274.599975586</ele>
        <time>2012-03-03T12:15:06Z</time>
      </trkpt>
      <trkpt lat="45.14234" lon="6.02776">
        <ele>1289</ele>
        <time>2012-03-03T12:15:48Z</time>
      </trkpt>
      <trkpt lat="45.14201" lon="6.02818">
        <ele>1281.199951172</ele>
        <time>2012-03-03T12:16:17Z</time>
      </trkpt>
      <trkpt lat="45.14168" lon="6.02836">
        <ele>1283.199951172</ele>
        <time>2012-03-03T12:16:30Z</time>
      </trkpt>
      <trkpt lat="45.14148" lon="6.02837">
        <ele>1286.599975586</ele>
        <time>2012-03-03T12:16:43Z</time>
      </trkpt>
      <trkpt lat="45.14118" lon="6.02882">
        <ele>1272.599975586</ele>
        <time>2012-03-03T12:17:21Z</time>
      </trkpt>
      <trkpt lat="45.14085" lon="6.02914">
        <ele>1270.199951172</ele>
        <time>2012-03-03T12:18:05Z</time>
      </trkpt>
      <trkpt lat="45.14005" lon="6.02941">
        <ele>1258</ele>
        <time>2012-03-03T12:19:18Z</time>
      </trkpt>
      <trkpt lat="45.13987" lon="6.02928">
        <ele>1257.800048828</ele>
        <time>2012-03-03T12:19:37Z</time>
      </trkpt>
      <trkpt lat="45.13978" lon="6.02886">
        <ele>1264.599975586</ele>
        <time>2012-03-03T12:20:09Z</time>
      </trkpt>
      <trkpt lat="45.13979" lon="6.02848">
        <ele>1273.800048828</ele>
        <time>2012-03-03T12:20:36Z</time>
      </trkpt>
      <trkpt lat="45.13975" lon="6.02836">
        <ele>1275.199951172</ele>
        <time>2012-03-03T12:20:46Z</time>
      </trkpt>
      <trkpt lat="45.13946" lon="6.02828">
        <ele>1269</ele>
        <time>2012-03-03T12:21:14Z</time>
      </trkpt>
      <trkpt lat="45.13888" lon="6.02772">
        <ele>1265.400024414</ele>
        <time>2012-03-03T12:22:26Z</time>
      </trkpt>
      <trkpt lat="45.1386" lon="6.02725">
        <ele>1268.199951172</ele>
        <time>2012-03-03T12:23:07Z</time>
      </trkpt>
      <trkpt lat="45.13846" lon="6.02632">
        <ele>1294.599975586</ele>
        <time>2012-03-03T12:24:14Z</time>
      </trkpt>
      <trkpt lat="45.13835" lon="6.02625">
        <ele>1293.800048828</ele>
        <time>2012-03-03T12:24:28Z</time>
      </trkpt>
      <trkpt lat="45.13818" lon="6.02654">
        <ele>1282</ele>
        <time>2012-03-03T12:24:51Z</time>
      </trkpt>
      <trkpt lat="45.13763" lon="6.02686">
        <ele>1268.400024414</ele>
        <time>2012-03-03T12:25:33Z</time>
      </trkpt>
      <trkpt lat="45.13713" lon="6.02673">
        <ele>1268.199951172</ele>
        <time>2012-03-03T12:26:18Z</time>
      </trkpt>
      <trkpt lat="45.13658" lon="6.02646">
        <ele>1266.800048828</ele>
        <time>2012-03-03T12:26:49Z</time>
      </trkpt>
      <trkpt lat="45.13623" lon="6.02613">
        <ele>1262.400024414</ele>
        <time>2012-03-03T12:27:21Z</time>
      </trkpt>
      <trkpt lat="45.13591" lon="6.02555">
        <ele>1262.199951172</ele>
        <time>2012-03-03T12:27:36Z</time>
      </trkpt>
      <trkpt lat="45.13564" lon="6.02542">
        <ele>1253.599975586</ele>
        <time>2012-03-03T12:27:42Z</time>
      </trkpt>
      <trkpt lat="45.13501" lon="6.02483">
        <ele>1246.400024414</ele>
        <time>2012-03-03T12:27:58Z</time>
      </trkpt>
      <trkpt lat="45.13474" lon="6.02445">
        <ele>1246.800048828</ele>
        <time>2012-03-03T12:28:08Z</time>
      </trkpt>
      <trkpt lat="45.13446" lon="6.02441">
        <ele>1237.199951172</ele>
        <time>2012-03-03T12:28:15Z</time>
      </trkpt>
      <trkpt lat="45.13353" lon="6.02373">
        <ele>1222.599975586</ele>
        <time>2012-03-03T12:28:53Z</time>
      </trkpt>
      <trkpt lat="45.13308" lon="6.02316">
        <ele>1212</ele>
        <time>2012-03-03T12:29:17Z</time>
      </trkpt>
      <trkpt lat="45.13286" lon="6.02271">
        <ele>1203.800048828</ele>
        <time>2012-03-03T12:29:34Z</time>
      </trkpt>
      <trkpt lat="45.13272" lon="6.02184">
        <ele>1209.199951172</ele>
        <time>2012-03-03T12:30:33Z</time>
      </trkpt>
      <trkpt lat="45.13278" lon="6.0206">
        <ele>1236.199951172</ele>
        <time>2012-03-03T12:31:38Z</time>
      </trkpt>
      <trkpt lat="45.1327" lon="6.02045">
        <ele>1236.800048828</ele>
        <time>2012-03-03T12:31:48Z</time>
      </trkpt>
      <trkpt lat="45.13255" lon="6.02036">
        <ele>1233.800048828</ele>
        <time>2012-03-03T12:31:56Z</time>
      </trkpt>
      <trkpt lat="45.13163" lon="6.02076">
        <ele>1192.199951172</ele>
        <time>2012-03-03T12:32:40Z</time>
      </trkpt>
      <trkpt lat="45.13054" lon="6.02002">
        <ele>1188.599975586</ele>
        <time>2012-03-03T12:33:48Z</time>
      </trkpt>
      <trkpt lat="45.12995" lon="6.01981">
        <ele>1175.800048828</ele>
        <time>2012-03-03T12:34:10Z</time>
      </trkpt>
      <trkpt lat="45.12933" lon="6.01921">
        <ele>1172.199951172</ele>
        <time>2012-03-03T12:34:44Z</time>
      </trkpt>
      <trkpt lat="45.12854" lon="6.01789">
        <ele>1157.599975586</ele>
        <time>2012-03-03T12:36:02Z</time>
      </trkpt>
      <trkpt lat="45.12847" lon="6.01794">
        <ele>1153.199951172</ele>
        <time>2012-03-03T12:36:25Z</time>
      </trkpt>
      <trkpt lat="45.12852" lon="6.01783">
        <ele>1157.400024414</ele>
        <time>2012-03-03T12:37:05Z</time>
      </trkpt>
      <trkpt lat="45.12854" lon="6.01789">
        <ele>1157.599975586</ele>
        <time>2012-03-03T12:37:34Z</time>
      </trkpt>
    </trkseg>
  </trk>
</gpx>